Time;durP1;ratioP1;P1;durP2;ratioP2;P2;SDS_P1;SDS_P2;PMS_P1;PMS_P2;Temp;Humidity;BMP_temperature;BMP_pressure;BME280_temperature;BME280_humidity;BME280_pressure;Samples;Min_cycle;Max_cycle;Signal;HPM_P1;HPM_P2
2021/09/24 00:00:25;;;;;;;6.699999;6;;;;;;;12.53;66.06348;95423.91;;;;
2021/09/24 00:01:26;;;;;;;6.699999;6;;;;;;;12.53;66.06348;95423.91;;;;
2021/09/24 00:02:27;;;;;;;6.699999;6;;;;;;;12.53;66.06348;95423.91;;;;
2021/09/24 00:03:27;;;;;;;6.699999;6;;;;;;;12.53;66.06348;95423.91;;;;
2021/09/24 00:04:30;;;;;;;6.699999;6;;;;;;;12.53;66.06348;95423.91;;;;
2021/09/24 00:05:30;;;;;;;6.699999;6;;;;;;;12.53;66.06348;95423.91;;;;
2021/09/24 00:06:31;;;;;;;6.699999;6;;;;;;;12.53;66.06348;95423.91;;;;
2021/09/24 00:07:32;;;;;;;7.4;6.6;;;;;;;12.43;66.44531;95411.14;;;;
2021/09/24 00:08:32;;;;;;;7.4;6.6;;;;;;;12.43;66.44531;95411.14;;;;
2021/09/24 00:09:32;;;;;;;7.4;6.6;;;;;;;12.43;66.44531;95411.14;;;;
2021/09/24 00:10:33;;;;;;;7.4;6.6;;;;;;;12.43;66.44531;95411.14;;;;
2021/09/24 00:11:34;;;;;;;7.4;6.6;;;;;;;12.43;66.44531;95411.14;;;;
2021/09/24 00:12:36;;;;;;;7.4;6.6;;;;;;;12.43;66.44531;95411.14;;;;
2021/09/24 00:13:36;;;;;;;7.4;6.6;;;;;;;12.43;66.44531;95411.14;;;;
2021/09/24 00:14:37;;;;;;;7.4;6.6;;;;;;;12.43;66.44531;95411.14;;;;
2021/09/24 00:15:37;;;;;;;7.4;6.6;;;;;;;12.43;66.44531;95411.14;;;;
2021/09/24 00:16:38;;;;;;;7.4;6.6;;;;;;;12.43;66.44531;95411.14;;;;
2021/09/24 00:17:39;;;;;;;7.550001;6.849999;;;;;;;12.35;66.91992;95412.34;;;;
2021/09/24 00:18:40;;;;;;;7.550001;6.849999;;;;;;;12.35;66.91992;95412.34;;;;
2021/09/24 00:19:41;;;;;;;7.550001;6.849999;;;;;;;12.35;66.91992;95412.34;;;;
2021/09/24 00:20:41;;;;;;;7.550001;6.849999;;;;;;;12.35;66.91992;95412.34;;;;
2021/09/24 00:21:42;;;;;;;7.550001;6.849999;;;;;;;12.35;66.91992;95412.34;;;;
2021/09/24 00:22:42;;;;;;;7.550001;6.849999;;;;;;;12.35;66.91992;95412.34;;;;
2021/09/24 00:23:43;;;;;;;7.550001;6.849999;;;;;;;12.35;66.91992;95412.34;;;;
2021/09/24 00:24:43;;;;;;;7.550001;6.849999;;;;;;;12.35;66.91992;95412.34;;;;
2021/09/24 00:25:44;;;;;;;7.550001;6.849999;;;;;;;12.35;66.91992;95412.34;;;;
2021/09/24 00:26:44;;;;;;;7.550001;6.849999;;;;;;;12.35;66.91992;95412.34;;;;
2021/09/24 00:27:45;;;;;;;7.550001;6.849999;;;;;;;12.35;66.91992;95412.34;;;;
2021/09/24 00:28:45;;;;;;;7.550001;6.849999;;;;;;;12.35;66.91992;95412.34;;;;
2021/09/24 00:29:46;;;;;;;7.550001;6.849999;;;;;;;12.35;66.91992;95412.34;;;;
2021/09/24 00:30:46;;;;;;;7.550001;6.849999;;;;;;;12.35;66.91992;95412.34;;;;
2021/09/24 00:31:47;;;;;;;7.550001;6.849999;;;;;;;12.35;66.91992;95412.34;;;;
2021/09/24 00:32:47;;;;;;;7.550001;6.849999;;;;;;;12.35;66.91992;95412.34;;;;
2021/09/24 00:33:48;;;;;;;7.550001;6.849999;;;;;;;12.35;66.91992;95412.34;;;;
2021/09/24 00:34:48;;;;;;;7.550001;6.849999;;;;;;;12.35;66.91992;95412.34;;;;
2021/09/24 00:35:49;;;;;;;7.550001;6.849999;;;;;;;12.35;66.91992;95412.34;;;;
2021/09/24 00:36:49;;;;;;;7.550001;6.849999;;;;;;;12.35;66.91992;95412.34;;;;
2021/09/24 00:37:50;;;;;;;7.550001;6.849999;;;;;;;12.35;66.91992;95412.34;;;;
2021/09/24 00:38:50;;;;;;;7.550001;6.849999;;;;;;;12.35;66.91992;95412.34;;;;
2021/09/24 00:39:51;;;;;;;7.550001;6.849999;;;;;;;12.35;66.91992;95412.34;;;;
2021/09/24 00:40:52;;;;;;;7.550001;6.849999;;;;;;;12.35;66.91992;95412.34;;;;
2021/09/24 00:41:53;;;;;;;7.550001;6.849999;;;;;;;12.35;66.91992;95412.34;;;;
2021/09/24 00:42:54;;;;;;;7.550001;6.849999;;;;;;;12.35;66.91992;95412.34;;;;
2021/09/24 00:43:54;;;;;;;7.550001;6.849999;;;;;;;12.35;66.91992;95412.34;;;;
2021/09/24 00:44:55;;;;;;;7.550001;6.849999;;;;;;;12.35;66.91992;95412.34;;;;
2021/09/24 00:45:55;;;;;;;7.550001;6.849999;;;;;;;12.35;66.91992;95412.34;;;;
2021/09/24 00:46:56;;;;;;;7.550001;6.849999;;;;;;;12.35;66.91992;95412.34;;;;
2021/09/24 00:47:56;;;;;;;7.550001;6.849999;;;;;;;12.35;66.91992;95412.34;;;;
2021/09/24 00:48:57;;;;;;;7.550001;6.849999;;;;;;;12.35;66.91992;95412.34;;;;
2021/09/24 00:49:57;;;;;;;8.1;7.299999;;;;;;;12.18;68.29102;95400.23;;;;
2021/09/24 00:50:58;;;;;;;8.1;7.299999;;;;;;;12.18;68.29102;95400.23;;;;
2021/09/24 00:51:59;;;;;;;8.1;7.299999;;;;;;;12.18;68.29102;95400.23;;;;
2021/09/24 00:53:00;;;;;;;8.1;7.299999;;;;;;;12.18;68.29102;95400.23;;;;
2021/09/24 00:54:00;;;;;;;8.1;7.299999;;;;;;;12.18;68.29102;95400.23;;;;
2021/09/24 00:55:02;;;;;;;8.1;7.299999;;;;;;;12.18;68.29102;95400.23;;;;
2021/09/24 00:56:04;;;;;;;8.1;7.299999;;;;;;;12.18;68.29102;95400.23;;;;
2021/09/24 00:57:07;;;;;;;8.1;7.299999;;;;;;;12.18;68.29102;95400.23;;;;
2021/09/24 00:58:08;;;;;;;8.1;7.299999;;;;;;;12.18;68.29102;95400.23;;;;
2021/09/24 00:59:08;;;;;;;8.1;7.299999;;;;;;;12.18;68.29102;95400.23;;;;
2021/09/24 01:00:08;;;;;;;8.749999;7.4;;;;;;;12.13;68.78906;95386.1;;;;
2021/09/24 01:01:10;;;;;;;8.749999;7.4;;;;;;;12.13;68.78906;95386.1;;;;
2021/09/24 01:02:10;;;;;;;8.749999;7.4;;;;;;;12.13;68.78906;95386.1;;;;
2021/09/24 01:03:11;;;;;;;8.749999;7.4;;;;;;;12.13;68.78906;95386.1;;;;
2021/09/24 01:04:12;;;;;;;8.749999;7.4;;;;;;;12.13;68.78906;95386.1;;;;
2021/09/24 01:05:12;;;;;;;8.749999;7.4;;;;;;;12.13;68.78906;95386.1;;;;
2021/09/24 01:06:13;;;;;;;8.749999;7.4;;;;;;;12.13;68.78906;95386.1;;;;
2021/09/24 01:07:14;;;;;;;8.749999;7.4;;;;;;;12.13;68.78906;95386.1;;;;
2021/09/24 01:08:15;;;;;;;8.749999;7.4;;;;;;;12.13;68.78906;95386.1;;;;
2021/09/24 01:09:16;;;;;;;8.749999;7.4;;;;;;;12.13;68.78906;95386.1;;;;
2021/09/24 01:10:16;;;;;;;8.749999;7.4;;;;;;;12.13;68.78906;95386.1;;;;
2021/09/24 01:11:17;;;;;;;8.9;7.45;;;;;;;12.18;69.43164;95379.55;;;;
2021/09/24 01:12:18;;;;;;;8.9;7.45;;;;;;;12.18;69.43164;95379.55;;;;
2021/09/24 01:13:19;;;;;;;8.9;7.45;;;;;;;12.18;69.43164;95379.55;;;;
2021/09/24 01:14:19;;;;;;;8.9;7.45;;;;;;;12.18;69.43164;95379.55;;;;
2021/09/24 01:15:20;;;;;;;8.9;7.45;;;;;;;12.18;69.43164;95379.55;;;;
2021/09/24 01:16:20;;;;;;;8.9;7.45;;;;;;;12.18;69.43164;95379.55;;;;
2021/09/24 01:17:21;;;;;;;8.9;7.45;;;;;;;12.18;69.43164;95379.55;;;;
2021/09/24 01:18:22;;;;;;;8.9;7.45;;;;;;;12.18;69.43164;95379.55;;;;
2021/09/24 01:19:23;;;;;;;8.9;7.45;;;;;;;12.18;69.43164;95379.55;;;;
2021/09/24 01:20:23;;;;;;;8.9;7.45;;;;;;;12.18;69.43164;95379.55;;;;
2021/09/24 01:21:24;;;;;;;8.9;7.45;;;;;;;12.18;69.43164;95379.55;;;;
2021/09/24 01:22:25;;;;;;;8.649999;7.149999;;;;;;;12.2;69.95117;95389.98;;;;
2021/09/24 01:23:26;;;;;;;8.649999;7.149999;;;;;;;12.2;69.95117;95389.98;;;;
2021/09/24 01:24:26;;;;;;;8.649999;7.149999;;;;;;;12.2;69.95117;95389.98;;;;
2021/09/24 01:25:27;;;;;;;8.649999;7.149999;;;;;;;12.2;69.95117;95389.98;;;;
2021/09/24 01:26:28;;;;;;;8.649999;7.149999;;;;;;;12.2;69.95117;95389.98;;;;
2021/09/24 01:27:28;;;;;;;8.649999;7.149999;;;;;;;12.2;69.95117;95389.98;;;;
2021/09/24 01:28:29;;;;;;;8.649999;7.149999;;;;;;;12.2;69.95117;95389.98;;;;
2021/09/24 01:29:29;;;;;;;8.649999;7.149999;;;;;;;12.2;69.95117;95389.98;;;;
2021/09/24 01:30:30;;;;;;;8.649999;7.149999;;;;;;;12.2;69.95117;95389.98;;;;
2021/09/24 01:31:30;;;;;;;8.649999;7.149999;;;;;;;12.2;69.95117;95389.98;;;;
2021/09/24 01:32:31;;;;;;;9.150001;8.25;;;;;;;12.24;70.48535;95385.33;;;;
2021/09/24 01:33:32;;;;;;;9.150001;8.25;;;;;;;12.24;70.48535;95385.33;;;;
2021/09/24 01:34:32;;;;;;;9.150001;8.25;;;;;;;12.24;70.48535;95385.33;;;;
2021/09/24 01:35:33;;;;;;;9.150001;8.25;;;;;;;12.24;70.48535;95385.33;;;;
2021/09/24 01:36:34;;;;;;;9.150001;8.25;;;;;;;12.24;70.48535;95385.33;;;;
2021/09/24 01:37:34;;;;;;;9.150001;8.25;;;;;;;12.24;70.48535;95385.33;;;;
2021/09/24 01:38:36;;;;;;;9.150001;8.25;;;;;;;12.24;70.48535;95385.33;;;;
2021/09/24 01:39:36;;;;;;;9.150001;8.25;;;;;;;12.24;70.48535;95385.33;;;;
2021/09/24 01:40:37;;;;;;;9.150001;8.25;;;;;;;12.24;70.48535;95385.33;;;;
2021/09/24 01:41:37;;;;;;;9.150001;8.25;;;;;;;12.24;70.48535;95385.33;;;;
2021/09/24 01:42:39;;;;;;;9.150001;8.25;;;;;;;12.24;70.48535;95385.33;;;;
2021/09/24 01:43:41;;;;;;;10.5;8.1;;;;;;;12.19;70.97266;95377.95;;;;
2021/09/24 01:44:42;;;;;;;10.5;8.1;;;;;;;12.19;70.97266;95377.95;;;;
2021/09/24 01:45:43;;;;;;;10.5;8.1;;;;;;;12.19;70.97266;95377.95;;;;
2021/09/24 01:46:43;;;;;;;10.5;8.1;;;;;;;12.19;70.97266;95377.95;;;;
2021/09/24 01:47:46;;;;;;;10.5;8.1;;;;;;;12.19;70.97266;95377.95;;;;
2021/09/24 01:48:46;;;;;;;10.5;8.1;;;;;;;12.19;70.97266;95377.95;;;;
2021/09/24 01:49:47;;;;;;;10.5;8.1;;;;;;;12.19;70.97266;95377.95;;;;
2021/09/24 01:50:47;;;;;;;10.5;8.1;;;;;;;12.19;70.97266;95377.95;;;;
2021/09/24 01:51:48;;;;;;;10.5;8.1;;;;;;;12.19;70.97266;95377.95;;;;
2021/09/24 01:52:49;;;;;;;10.5;8.1;;;;;;;12.19;70.97266;95377.95;;;;
2021/09/24 01:53:49;;;;;;;9.449999;8.049999;;;;;;;12.09;71.33203;95380.06;;;;
2021/09/24 01:54:50;;;;;;;9.449999;8.049999;;;;;;;12.09;71.33203;95380.06;;;;
2021/09/24 01:55:50;;;;;;;9.449999;8.049999;;;;;;;12.09;71.33203;95380.06;;;;
2021/09/24 01:56:52;;;;;;;9.449999;8.049999;;;;;;;12.09;71.33203;95380.06;;;;
2021/09/24 01:57:52;;;;;;;9.449999;8.049999;;;;;;;12.09;71.33203;95380.06;;;;
2021/09/24 01:58:53;;;;;;;9.449999;8.049999;;;;;;;12.09;71.33203;95380.06;;;;
2021/09/24 01:59:53;;;;;;;9.449999;8.049999;;;;;;;12.09;71.33203;95380.06;;;;
2021/09/24 02:00:54;;;;;;;9.449999;8.049999;;;;;;;12.09;71.33203;95380.06;;;;
2021/09/24 02:01:54;;;;;;;9.449999;8.049999;;;;;;;12.09;71.33203;95380.06;;;;
2021/09/24 02:02:55;;;;;;;9.449999;8.049999;;;;;;;12.09;71.33203;95380.06;;;;
2021/09/24 02:03:55;;;;;;;9.449999;8.049999;;;;;;;12.09;71.33203;95380.06;;;;
2021/09/24 02:04:56;;;;;;;10.8;8.700002;;;;;;;11.99;71.92676;95373.1;;;;
2021/09/24 02:05:56;;;;;;;10.8;8.700002;;;;;;;11.99;71.92676;95373.1;;;;
2021/09/24 02:06:57;;;;;;;10.8;8.700002;;;;;;;11.99;71.92676;95373.1;;;;
2021/09/24 02:07:57;;;;;;;10.8;8.700002;;;;;;;11.99;71.92676;95373.1;;;;
2021/09/24 02:08:58;;;;;;;10.8;8.700002;;;;;;;11.99;71.92676;95373.1;;;;
2021/09/24 02:09:59;;;;;;;10.8;8.700002;;;;;;;11.99;71.92676;95373.1;;;;
2021/09/24 02:11:00;;;;;;;10.8;8.700002;;;;;;;11.99;71.92676;95373.1;;;;
2021/09/24 02:12:01;;;;;;;10.8;8.700002;;;;;;;11.99;71.92676;95373.1;;;;
2021/09/24 02:13:03;;;;;;;10.8;8.700002;;;;;;;11.99;71.92676;95373.1;;;;
2021/09/24 02:14:04;;;;;;;10.8;8.700002;;;;;;;11.99;71.92676;95373.1;;;;
2021/09/24 02:15:04;;;;;;;9.550001;8.550001;;;;;;;12.05;72.55078;95369.84;;;;
2021/09/24 02:16:06;;;;;;;9.550001;8.550001;;;;;;;12.05;72.55078;95369.84;;;;
2021/09/24 02:17:08;;;;;;;9.550001;8.550001;;;;;;;12.05;72.55078;95369.84;;;;
2021/09/24 02:18:08;;;;;;;9.550001;8.550001;;;;;;;12.05;72.55078;95369.84;;;;
2021/09/24 02:19:09;;;;;;;9.550001;8.550001;;;;;;;12.05;72.55078;95369.84;;;;
2021/09/24 02:20:09;;;;;;;9.550001;8.550001;;;;;;;12.05;72.55078;95369.84;;;;
2021/09/24 02:21:10;;;;;;;9.550001;8.550001;;;;;;;12.05;72.55078;95369.84;;;;
2021/09/24 02:22:11;;;;;;;9.550001;8.550001;;;;;;;12.05;72.55078;95369.84;;;;
2021/09/24 02:23:11;;;;;;;9.550001;8.550001;;;;;;;12.05;72.55078;95369.84;;;;
2021/09/24 02:24:12;;;;;;;9.550001;8.550001;;;;;;;12.05;72.55078;95369.84;;;;
2021/09/24 02:25:13;;;;;;;9.550001;8.550001;;;;;;;12.05;72.55078;95369.84;;;;
2021/09/24 02:26:13;;;;;;;11.3;9.050001;;;;;;;12.05;72.60449;95380.25;;;;
2021/09/24 02:27:14;;;;;;;11.3;9.050001;;;;;;;12.05;72.60449;95380.25;;;;
2021/09/24 02:28:15;;;;;;;11.3;9.050001;;;;;;;12.05;72.60449;95380.25;;;;
2021/09/24 02:29:15;;;;;;;11.3;9.050001;;;;;;;12.05;72.60449;95380.25;;;;
2021/09/24 02:30:15;;;;;;;11.3;9.050001;;;;;;;12.05;72.60449;95380.25;;;;
2021/09/24 02:31:16;;;;;;;11.3;9.050001;;;;;;;12.05;72.60449;95380.25;;;;
2021/09/24 02:32:17;;;;;;;11.3;9.050001;;;;;;;12.05;72.60449;95380.25;;;;
2021/09/24 02:33:18;;;;;;;11.3;9.050001;;;;;;;12.05;72.60449;95380.25;;;;
2021/09/24 02:34:21;;;;;;;11.3;9.050001;;;;;;;12.05;72.60449;95380.25;;;;
2021/09/24 02:35:21;;;;;;;11.3;9.050001;;;;;;;12.05;72.60449;95380.25;;;;
2021/09/24 02:36:22;;;;;;;9.850001;8.299999;;;;;;;11.88;72.89844;95393.73;;;;
2021/09/24 02:37:22;;;;;;;9.850001;8.299999;;;;;;;11.88;72.89844;95393.73;;;;
2021/09/24 02:38:23;;;;;;;9.850001;8.299999;;;;;;;11.88;72.89844;95393.73;;;;
2021/09/24 02:39:23;;;;;;;9.850001;8.299999;;;;;;;11.88;72.89844;95393.73;;;;
2021/09/24 02:40:24;;;;;;;9.850001;8.299999;;;;;;;11.88;72.89844;95393.73;;;;
2021/09/24 02:41:24;;;;;;;9.850001;8.299999;;;;;;;11.88;72.89844;95393.73;;;;
2021/09/24 02:42:25;;;;;;;9.850001;8.299999;;;;;;;11.88;72.89844;95393.73;;;;
2021/09/24 02:43:26;;;;;;;9.850001;8.299999;;;;;;;11.88;72.89844;95393.73;;;;
2021/09/24 02:44:26;;;;;;;9.850001;8.299999;;;;;;;11.88;72.89844;95393.73;;;;
2021/09/24 02:45:27;;;;;;;9.850001;8.299999;;;;;;;11.88;72.89844;95393.73;;;;
2021/09/24 02:46:27;;;;;;;9.850001;8.299999;;;;;;;11.88;72.89844;95393.73;;;;
2021/09/24 02:47:28;;;;;;;10.45;9.349999;;;;;;;11.68;73.40137;95407.26;;;;
2021/09/24 02:48:28;;;;;;;10.45;9.349999;;;;;;;11.68;73.40137;95407.26;;;;
2021/09/24 02:49:29;;;;;;;10.45;9.349999;;;;;;;11.68;73.40137;95407.26;;;;
2021/09/24 02:50:29;;;;;;;10.45;9.349999;;;;;;;11.68;73.40137;95407.26;;;;
2021/09/24 02:51:30;;;;;;;10.45;9.349999;;;;;;;11.68;73.40137;95407.26;;;;
2021/09/24 02:52:30;;;;;;;10.45;9.349999;;;;;;;11.68;73.40137;95407.26;;;;
2021/09/24 02:53:31;;;;;;;10.45;9.349999;;;;;;;11.68;73.40137;95407.26;;;;
2021/09/24 02:54:31;;;;;;;10.45;9.349999;;;;;;;11.68;73.40137;95407.26;;;;
2021/09/24 02:55:32;;;;;;;10.45;9.349999;;;;;;;11.68;73.40137;95407.26;;;;
2021/09/24 02:56:32;;;;;;;10.45;9.349999;;;;;;;11.68;73.40137;95407.26;;;;
2021/09/24 02:57:33;;;;;;;12;9.849999;;;;;;;11.51;73.86719;95409.58;;;;
2021/09/24 02:58:34;;;;;;;12;9.849999;;;;;;;11.51;73.86719;95409.58;;;;
2021/09/24 02:59:34;;;;;;;12;9.849999;;;;;;;11.51;73.86719;95409.58;;;;
2021/09/24 03:00:34;;;;;;;12;9.849999;;;;;;;11.51;73.86719;95409.58;;;;
2021/09/24 03:01:35;;;;;;;12;9.849999;;;;;;;11.51;73.86719;95409.58;;;;
2021/09/24 03:02:36;;;;;;;12;9.849999;;;;;;;11.51;73.86719;95409.58;;;;
2021/09/24 03:03:36;;;;;;;12;9.849999;;;;;;;11.51;73.86719;95409.58;;;;
2021/09/24 03:04:37;;;;;;;12;9.849999;;;;;;;11.51;73.86719;95409.58;;;;
2021/09/24 03:05:37;;;;;;;12;9.849999;;;;;;;11.51;73.86719;95409.58;;;;
2021/09/24 03:06:38;;;;;;;12;9.849999;;;;;;;11.51;73.86719;95409.58;;;;
2021/09/24 03:07:38;;;;;;;12;9.849999;;;;;;;11.51;73.86719;95409.58;;;;
2021/09/24 03:08:39;;;;;;;11.7;9.599999;;;;;;;11.29;74.32129;95408.96;;;;
2021/09/24 03:09:39;;;;;;;11.7;9.599999;;;;;;;11.29;74.32129;95408.96;;;;
2021/09/24 03:10:40;;;;;;;11.7;9.599999;;;;;;;11.29;74.32129;95408.96;;;;
2021/09/24 03:11:41;;;;;;;11.7;9.599999;;;;;;;11.29;74.32129;95408.96;;;;
2021/09/24 03:12:41;;;;;;;11.7;9.599999;;;;;;;11.29;74.32129;95408.96;;;;
2021/09/24 03:13:44;;;;;;;11.7;9.599999;;;;;;;11.29;74.32129;95408.96;;;;
2021/09/24 03:14:44;;;;;;;11.7;9.599999;;;;;;;11.29;74.32129;95408.96;;;;
2021/09/24 03:15:45;;;;;;;11.7;9.599999;;;;;;;11.29;74.32129;95408.96;;;;
2021/09/24 03:16:45;;;;;;;11.7;9.599999;;;;;;;11.29;74.32129;95408.96;;;;
2021/09/24 03:17:46;;;;;;;11.7;9.599999;;;;;;;11.29;74.32129;95408.96;;;;
2021/09/24 03:18:46;;;;;;;11.7;9.599999;;;;;;;11.29;74.32129;95408.96;;;;
2021/09/24 03:19:48;;;;;;;10.8;9.3;;;;;;;11.08;74.80078;95411.86;;;;
2021/09/24 03:20:50;;;;;;;10.8;9.3;;;;;;;11.08;74.80078;95411.86;;;;
2021/09/24 03:21:51;;;;;;;10.8;9.3;;;;;;;11.08;74.80078;95411.86;;;;
2021/09/24 03:22:54;;;;;;;10.8;9.3;;;;;;;11.08;74.80078;95411.86;;;;
2021/09/24 03:23:55;;;;;;;10.8;9.3;;;;;;;11.08;74.80078;95411.86;;;;
2021/09/24 03:24:55;;;;;;;10.8;9.3;;;;;;;11.08;74.80078;95411.86;;;;
2021/09/24 03:25:56;;;;;;;10.8;9.3;;;;;;;11.08;74.80078;95411.86;;;;
2021/09/24 03:26:56;;;;;;;10.8;9.3;;;;;;;11.08;74.80078;95411.86;;;;
2021/09/24 03:27:57;;;;;;;10.8;9.3;;;;;;;11.08;74.80078;95411.86;;;;
2021/09/24 03:28:57;;;;;;;10.8;9.3;;;;;;;11.08;74.80078;95411.86;;;;
2021/09/24 03:29:58;;;;;;;12;9.950001;;;;;;;10.8;75.37305;95405.38;;;;
2021/09/24 03:30:58;;;;;;;12;9.950001;;;;;;;10.8;75.37305;95405.38;;;;
2021/09/24 03:31:59;;;;;;;12;9.950001;;;;;;;10.8;75.37305;95405.38;;;;
2021/09/24 03:32:59;;;;;;;12;9.950001;;;;;;;10.8;75.37305;95405.38;;;;
2021/09/24 03:34:00;;;;;;;12;9.950001;;;;;;;10.8;75.37305;95405.38;;;;
2021/09/24 03:35:02;;;;;;;12;9.950001;;;;;;;10.8;75.37305;95405.38;;;;
2021/09/24 03:36:03;;;;;;;12;9.950001;;;;;;;10.8;75.37305;95405.38;;;;
2021/09/24 03:37:04;;;;;;;12;9.950001;;;;;;;10.8;75.37305;95405.38;;;;
2021/09/24 03:38:05;;;;;;;12;9.950001;;;;;;;10.8;75.37305;95405.38;;;;
2021/09/24 03:39:05;;;;;;;12;9.950001;;;;;;;10.8;75.37305;95405.38;;;;
2021/09/24 03:40:10;;;;;;;12;9.950001;;;;;;;10.8;75.37305;95405.38;;;;
2021/09/24 03:41:12;;;;;;;12;9.950001;;;;;;;10.8;75.37305;95405.38;;;;
2021/09/24 03:42:12;;;;;;;12;9.950001;;;;;;;10.8;75.37305;95405.38;;;;
2021/09/24 03:43:13;;;;;;;12;9.950001;;;;;;;10.8;75.37305;95405.38;;;;
2021/09/24 03:44:13;;;;;;;12;9.950001;;;;;;;10.8;75.37305;95405.38;;;;
2021/09/24 03:45:14;;;;;;;12;9.950001;;;;;;;10.8;75.37305;95405.38;;;;
2021/09/24 03:46:15;;;;;;;12;9.950001;;;;;;;10.8;75.37305;95405.38;;;;
2021/09/24 03:47:15;;;;;;;12;9.950001;;;;;;;10.8;75.37305;95405.38;;;;
2021/09/24 03:48:16;;;;;;;12;9.950001;;;;;;;10.8;75.37305;95405.38;;;;
2021/09/24 03:49:16;;;;;;;12;9.950001;;;;;;;10.8;75.37305;95405.38;;;;
2021/09/24 03:50:17;;;;;;;12;9.950001;;;;;;;10.8;75.37305;95405.38;;;;
2021/09/24 03:51:17;;;;;;;13.6;10;;;;;;;10.31;76.49609;95412.41;;;;
2021/09/24 03:52:18;;;;;;;13.6;10;;;;;;;10.31;76.49609;95412.41;;;;
2021/09/24 03:53:18;;;;;;;13.6;10;;;;;;;10.31;76.49609;95412.41;;;;
2021/09/24 03:54:19;;;;;;;13.6;10;;;;;;;10.31;76.49609;95412.41;;;;
2021/09/24 03:55:19;;;;;;;13.6;10;;;;;;;10.31;76.49609;95412.41;;;;
2021/09/24 03:56:20;;;;;;;13.6;10;;;;;;;10.31;76.49609;95412.41;;;;
2021/09/24 03:57:21;;;;;;;13.6;10;;;;;;;10.31;76.49609;95412.41;;;;
2021/09/24 03:58:21;;;;;;;13.6;10;;;;;;;10.31;76.49609;95412.41;;;;
2021/09/24 03:59:22;;;;;;;13.6;10;;;;;;;10.31;76.49609;95412.41;;;;
2021/09/24 04:00:23;;;;;;;13.6;10;;;;;;;10.31;76.49609;95412.41;;;;
2021/09/24 04:01:23;;;;;;;13.6;10;;;;;;;10.31;76.49609;95412.41;;;;
2021/09/24 04:02:24;;;;;;;11.05;9.549999;;;;;;;10.13;76.7959;95404.8;;;;
2021/09/24 04:03:25;;;;;;;11.05;9.549999;;;;;;;10.13;76.7959;95404.8;;;;
2021/09/24 04:04:25;;;;;;;11.05;9.549999;;;;;;;10.13;76.7959;95404.8;;;;
2021/09/24 04:05:26;;;;;;;11.05;9.549999;;;;;;;10.13;76.7959;95404.8;;;;
2021/09/24 04:06:26;;;;;;;11.05;9.549999;;;;;;;10.13;76.7959;95404.8;;;;
2021/09/24 04:07:27;;;;;;;11.05;9.549999;;;;;;;10.13;76.7959;95404.8;;;;
2021/09/24 04:08:27;;;;;;;11.05;9.549999;;;;;;;10.13;76.7959;95404.8;;;;
2021/09/24 04:09:28;;;;;;;11.05;9.549999;;;;;;;10.13;76.7959;95404.8;;;;
2021/09/24 04:10:28;;;;;;;11.05;9.549999;;;;;;;10.13;76.7959;95404.8;;;;
2021/09/24 04:11:29;;;;;;;11.05;9.549999;;;;;;;10.13;76.7959;95404.8;;;;
2021/09/24 04:12:30;;;;;;;15.85;10.8;;;;;;;9.99;77.03809;95410.06;;;;
2021/09/24 04:13:30;;;;;;;15.85;10.8;;;;;;;9.99;77.03809;95410.06;;;;
2021/09/24 04:14:31;;;;;;;15.85;10.8;;;;;;;9.99;77.03809;95410.06;;;;
2021/09/24 04:15:31;;;;;;;15.85;10.8;;;;;;;9.99;77.03809;95410.06;;;;
2021/09/24 04:16:32;;;;;;;15.85;10.8;;;;;;;9.99;77.03809;95410.06;;;;
2021/09/24 04:17:32;;;;;;;15.85;10.8;;;;;;;9.99;77.03809;95410.06;;;;
2021/09/24 04:18:33;;;;;;;15.85;10.8;;;;;;;9.99;77.03809;95410.06;;;;
2021/09/24 04:19:33;;;;;;;15.85;10.8;;;;;;;9.99;77.03809;95410.06;;;;
2021/09/24 04:20:34;;;;;;;15.85;10.8;;;;;;;9.99;77.03809;95410.06;;;;
2021/09/24 04:21:34;;;;;;;15.85;10.8;;;;;;;9.99;77.03809;95410.06;;;;
2021/09/24 04:22:35;;;;;;;15.85;10.8;;;;;;;9.99;77.03809;95410.06;;;;
2021/09/24 04:23:36;;;;;;;13.85;10.75;;;;;;;9.84;77.50293;95408.84;;;;
2021/09/24 04:24:36;;;;;;;13.85;10.75;;;;;;;9.84;77.50293;95408.84;;;;
2021/09/24 04:25:37;;;;;;;13.85;10.75;;;;;;;9.84;77.50293;95408.84;;;;
2021/09/24 04:26:38;;;;;;;13.85;10.75;;;;;;;9.84;77.50293;95408.84;;;;
2021/09/24 04:27:38;;;;;;;13.85;10.75;;;;;;;9.84;77.50293;95408.84;;;;
2021/09/24 04:28:39;;;;;;;13.85;10.75;;;;;;;9.84;77.50293;95408.84;;;;
2021/09/24 04:29:40;;;;;;;13.85;10.75;;;;;;;9.84;77.50293;95408.84;;;;
2021/09/24 04:30:40;;;;;;;13.85;10.75;;;;;;;9.84;77.50293;95408.84;;;;
2021/09/24 04:31:41;;;;;;;13.85;10.75;;;;;;;9.84;77.50293;95408.84;;;;
2021/09/24 04:32:41;;;;;;;13.85;10.75;;;;;;;9.84;77.50293;95408.84;;;;
2021/09/24 04:33:42;;;;;;;16.75;11.15;;;;;;;9.69;77.95801;95404.26;;;;
2021/09/24 04:34:42;;;;;;;16.75;11.15;;;;;;;9.69;77.95801;95404.26;;;;
2021/09/24 04:35:43;;;;;;;16.75;11.15;;;;;;;9.69;77.95801;95404.26;;;;
2021/09/24 04:36:43;;;;;;;16.75;11.15;;;;;;;9.69;77.95801;95404.26;;;;
2021/09/24 04:37:44;;;;;;;16.75;11.15;;;;;;;9.69;77.95801;95404.26;;;;
2021/09/24 04:38:45;;;;;;;16.75;11.15;;;;;;;9.69;77.95801;95404.26;;;;
2021/09/24 04:39:46;;;;;;;16.75;11.15;;;;;;;9.69;77.95801;95404.26;;;;
2021/09/24 04:40:46;;;;;;;16.75;11.15;;;;;;;9.69;77.95801;95404.26;;;;
2021/09/24 04:41:47;;;;;;;16.75;11.15;;;;;;;9.69;77.95801;95404.26;;;;
2021/09/24 04:42:48;;;;;;;16.75;11.15;;;;;;;9.69;77.95801;95404.26;;;;
2021/09/24 04:43:48;;;;;;;16.75;11.15;;;;;;;9.69;77.95801;95404.26;;;;
2021/09/24 04:44:49;;;;;;;14.55;11.4;;;;;;;9.58;78.44922;95415.39;;;;
2021/09/24 04:45:49;;;;;;;14.55;11.4;;;;;;;9.58;78.44922;95415.39;;;;
2021/09/24 04:46:50;;;;;;;14.55;11.4;;;;;;;9.58;78.44922;95415.39;;;;
2021/09/24 04:47:50;;;;;;;14.55;11.4;;;;;;;9.58;78.44922;95415.39;;;;
2021/09/24 04:48:51;;;;;;;14.55;11.4;;;;;;;9.58;78.44922;95415.39;;;;
2021/09/24 04:49:51;;;;;;;14.55;11.4;;;;;;;9.58;78.44922;95415.39;;;;
2021/09/24 04:50:52;;;;;;;14.55;11.4;;;;;;;9.58;78.44922;95415.39;;;;
2021/09/24 04:51:52;;;;;;;14.55;11.4;;;;;;;9.58;78.44922;95415.39;;;;
2021/09/24 04:52:53;;;;;;;14.55;11.4;;;;;;;9.58;78.44922;95415.39;;;;
2021/09/24 04:53:53;;;;;;;14.55;11.4;;;;;;;9.58;78.44922;95415.39;;;;
2021/09/24 04:54:55;;;;;;;18.2;12.2;;;;;;;9.52;78.85352;95415.86;;;;
2021/09/24 04:55:56;;;;;;;18.2;12.2;;;;;;;9.52;78.85352;95415.86;;;;
2021/09/24 04:56:56;;;;;;;18.2;12.2;;;;;;;9.52;78.85352;95415.86;;;;
2021/09/24 04:57:57;;;;;;;18.2;12.2;;;;;;;9.52;78.85352;95415.86;;;;
2021/09/24 04:58:58;;;;;;;18.2;12.2;;;;;;;9.52;78.85352;95415.86;;;;
2021/09/24 04:59:58;;;;;;;18.2;12.2;;;;;;;9.52;78.85352;95415.86;;;;
2021/09/24 05:00:59;;;;;;;18.2;12.2;;;;;;;9.52;78.85352;95415.86;;;;
2021/09/24 05:01:59;;;;;;;18.2;12.2;;;;;;;9.52;78.85352;95415.86;;;;
2021/09/24 05:03:00;;;;;;;18.2;12.2;;;;;;;9.52;78.85352;95415.86;;;;
2021/09/24 05:04:00;;;;;;;18.2;12.2;;;;;;;9.52;78.85352;95415.86;;;;
2021/09/24 05:05:01;;;;;;;18.2;12.2;;;;;;;9.52;78.85352;95415.86;;;;
2021/09/24 05:06:01;;;;;;;15.5;11.9;;;;;;;9.5;79.1377;95425.11;;;;
2021/09/24 05:07:02;;;;;;;15.5;11.9;;;;;;;9.5;79.1377;95425.11;;;;
2021/09/24 05:08:03;;;;;;;15.5;11.9;;;;;;;9.5;79.1377;95425.11;;;;
2021/09/24 05:09:04;;;;;;;15.5;11.9;;;;;;;9.5;79.1377;95425.11;;;;
2021/09/24 05:10:04;;;;;;;15.5;11.9;;;;;;;9.5;79.1377;95425.11;;;;
2021/09/24 05:11:06;;;;;;;15.5;11.9;;;;;;;9.5;79.1377;95425.11;;;;
2021/09/24 05:12:07;;;;;;;15.5;11.9;;;;;;;9.5;79.1377;95425.11;;;;
2021/09/24 05:13:08;;;;;;;15.5;11.9;;;;;;;9.5;79.1377;95425.11;;;;
2021/09/24 05:14:08;;;;;;;15.5;11.9;;;;;;;9.5;79.1377;95425.11;;;;
2021/09/24 05:15:09;;;;;;;15.5;11.9;;;;;;;9.5;79.1377;95425.11;;;;
2021/09/24 05:16:11;;;;;;;15.5;11.9;;;;;;;9.5;79.1377;95425.11;;;;
2021/09/24 05:17:12;;;;;;;15.9;12.1;;;;;;;9.63;79.26758;95433.46;;;;
2021/09/24 05:18:13;;;;;;;15.9;12.1;;;;;;;9.63;79.26758;95433.46;;;;
2021/09/24 05:19:13;;;;;;;15.9;12.1;;;;;;;9.63;79.26758;95433.46;;;;
2021/09/24 05:20:14;;;;;;;15.9;12.1;;;;;;;9.63;79.26758;95433.46;;;;
2021/09/24 05:21:14;;;;;;;15.9;12.1;;;;;;;9.63;79.26758;95433.46;;;;
2021/09/24 05:22:15;;;;;;;15.9;12.1;;;;;;;9.63;79.26758;95433.46;;;;
2021/09/24 05:23:16;;;;;;;15.9;12.1;;;;;;;9.63;79.26758;95433.46;;;;
2021/09/24 05:24:16;;;;;;;15.9;12.1;;;;;;;9.63;79.26758;95433.46;;;;
2021/09/24 05:25:17;;;;;;;15.9;12.1;;;;;;;9.63;79.26758;95433.46;;;;
2021/09/24 05:26:17;;;;;;;15.9;12.1;;;;;;;9.63;79.26758;95433.46;;;;
2021/09/24 05:27:18;;;;;;;16.6;11.65;;;;;;;9.77;79.28516;95430.89;;;;
2021/09/24 05:28:18;;;;;;;16.6;11.65;;;;;;;9.77;79.28516;95430.89;;;;
2021/09/24 05:29:19;;;;;;;16.6;11.65;;;;;;;9.77;79.28516;95430.89;;;;
2021/09/24 05:30:19;;;;;;;16.6;11.65;;;;;;;9.77;79.28516;95430.89;;;;
2021/09/24 05:31:20;;;;;;;16.6;11.65;;;;;;;9.77;79.28516;95430.89;;;;